Weather at Narita International Airport

Public forecast

Using degrees Celsius for public forecast. Weather courtesy of forecast.io.

Current aviation weather report (METAR) for Narita International Airport

2022/12/08 12:30 (retrieved 24 minutes ago)

RJAA 081230Z 36006KT 9999 FEW030 BKN/// 06/02 Q1019 NOSIG RMK 1CU030 A3011

Aviation forecast (TAF) for Narita International Airport

2022/12/08 12:34 (retrieved 20 minutes ago)

TAF RJAA 081105Z 0812/0918 01006KT 9999 FEW020 BECMG 0903/0906 12005KT BECMG 0909/0912 32005KT